This is the latest recevied weather packets stored in our database for station/object WA4IKQ. If no packets are shown the sender has not sent any weather packets the latest 10 day(s).
| Time | Temp. | Humidity | Pressure | Rain* | Wind** | Luminosity | Snow |
|---|---|---|---|---|---|---|---|
| 1777790059 | 18.33° C | 93% | 1014.3 hPa | 0 mm | 2.24 m/s, 335° | - | - |
| 1777789656 | 18.33° C | 93% | 1014.4 hPa | 0 mm | 0 m/s | - | - |
| 1777789457 | 18.33° C | 93% | 1014.4 hPa | 0 mm | 0 m/s | - | - |
| 1777789353 | 18.33° C | 93% | 1014.4 hPa | 0 mm | 0 m/s | - | - |
| 1777789010 | 18.33° C | 93% | 1014.5 hPa | 0 mm | 0.45 m/s, 346° | - | - |
| 1777788865 | 18.33° C | 93% | 1014.5 hPa | 0 mm | 0.45 m/s, 346° | - | - |
| 1777788759 | 18.33° C | 93% | 1014.5 hPa | 0 mm | 0.45 m/s, 309° | - | - |
| 1777788566 | 18.33° C | 93% | 1014.5 hPa | 0 mm | 0.45 m/s, 309° | - | - |
| 1777788398 | 18.89° C | 93% | 1014.6 hPa | 0 mm | 0.45 m/s, 37° | - | - |
| 1777788260 | 18.89° C | 93% | 1014.6 hPa | 0 mm | 0.45 m/s, 37° | - | - |
| 1777788199 | 18.89° C | 93% | 1014.4 hPa | 0 mm | 0.89 m/s, 28° | - | - |
| 1777787958 | 18.89° C | 93% | 1014.4 hPa | 0 mm | 0.89 m/s, 28° | - | - |
| 1777787872 | 18.89° C | 93% | 1014.6 hPa | 0 mm | 0 m/s | - | - |
| 1777787656 | 18.89° C | 93% | 1014.6 hPa | 0 mm | 0 m/s | - | - |
| 1777787595 | 18.89° C | 93% | 1015 hPa | 0 mm | 0.45 m/s, 352° | - | - |
| 1777787547 | 18.89° C | 93% | 1015 hPa | 0 mm | 0.45 m/s, 352° | - | - |
| 1777787358 | 18.89° C | 93% | 1015 hPa | 0 mm | 0.45 m/s, 352° | - | - |
| 1777787169 | 18.89° C | 93% | 1015 hPa | 0 mm | 0 m/s | - | - |
| 1777787056 | 18.89° C | 93% | 1015 hPa | 0 mm | 0 m/s | - | - |
| 1777786756 | 18.89° C | 93% | 1015 hPa | 0 mm | 0 m/s | - | - |
| 1777786655 | 18.89° C | 93% | 1015 hPa | 0 mm | 0 m/s | - | - |
| 1777786457 | 18.89° C | 93% | 1015 hPa | 0 mm | 0 m/s | - | - |
| 1777786009 | 18.89° C | 92% | 1015.2 hPa | 0 mm | 2.24 m/s, 281° | - | - |
| 1777785857 | 18.89° C | 92% | 1015.2 hPa | 0 mm | 2.24 m/s, 281° | - | - |
| 1777785616 | 18.89° C | 92% | 1015.3 hPa | 0 mm | 1.79 m/s, 322° | - | - |
* Rain latest hour (hover to see other rain measurements)
** Current wind speed in m/s (hover to see current wind gust speed)